createdAt,value
2023-10-08T00:02:23.320Z,100366.91
2023-10-08T00:05:26.046Z,100372.66
2023-10-08T00:08:27.925Z,100380.56
2023-10-08T00:11:30.544Z,100381.19
2023-10-08T00:14:44.966Z,100376.78
2023-10-08T00:17:47.204Z,100374.72
2023-10-08T00:20:56.088Z,100371.88
2023-10-08T00:24:00.167Z,100375.13
2023-10-08T00:27:03.722Z,100370.56
2023-10-08T00:30:14.757Z,100363.41
2023-10-08T00:33:17.970Z,100357.97
2023-10-08T00:36:20.909Z,100353.00
2023-10-08T00:39:25.349Z,100334.84
2023-10-08T00:42:29.617Z,100323.97
2023-10-08T00:45:31.771Z,100328.09
2023-10-08T00:48:37.200Z,100349.28
2023-10-08T00:52:00.241Z,100331.25
2023-10-08T00:55:02.066Z,100313.38
2023-10-08T00:58:12.901Z,100324.66
2023-10-08T01:01:17.724Z,100322.97
2023-10-08T01:04:29.049Z,100312.09
2023-10-08T01:07:31.490Z,100318.37
2023-10-08T01:10:33.657Z,100333.44
2023-10-08T01:13:43.991Z,100333.72
2023-10-08T01:16:48.168Z,100344.19
2023-10-08T01:19:57.822Z,100338.69
2023-10-08T01:22:59.771Z,100325.53
2023-10-08T01:26:16.181Z,100322.41
2023-10-08T01:29:20.746Z,100327.22
2023-10-08T01:32:25.777Z,100329.25
2023-10-08T01:35:27.577Z,100318.44
2023-10-08T01:38:30.300Z,100306.88
2023-10-08T01:41:32.222Z,100314.22
2023-10-08T01:44:36.246Z,100309.69
2023-10-08T01:47:38.073Z,100283.94
2023-10-08T01:50:40.027Z,100306.75
2023-10-08T01:53:42.501Z,100304.47
2023-10-08T01:56:44.718Z,100297.22
2023-10-08T01:59:46.799Z,100294.25
2023-10-08T02:02:51.377Z,100291.13
2023-10-08T02:05:54.883Z,100305.59
2023-10-08T02:08:57.080Z,100303.91
2023-10-08T02:11:59.653Z,100300.12
2023-10-08T02:15:04.145Z,100298.66
2023-10-08T02:18:06.294Z,100299.75
2023-10-08T02:21:11.680Z,100306.31
2023-10-08T02:24:13.841Z,100326.31
2023-10-08T02:27:16.402Z,100319.16
2023-10-08T02:30:19.067Z,100308.63
2023-10-08T02:33:21.466Z,100297.56
2023-10-08T02:36:23.441Z,100299.81
2023-10-08T02:39:28.719Z,100290.56
2023-10-08T02:42:30.501Z,100285.38
2023-10-08T02:45:32.346Z,100270.47
2023-10-08T02:48:36.224Z,100254.81
2023-10-08T02:51:42.448Z,100243.72
2023-10-08T02:54:44.408Z,100245.97
2023-10-08T02:57:46.191Z,100246.03
2023-10-08T03:00:49.412Z,100251.16
2023-10-08T03:03:52.379Z,100243.97
2023-10-08T03:06:56.368Z,100255.09
2023-10-08T03:10:07.850Z,100245.31
2023-10-08T03:13:12.072Z,100216.87
2023-10-08T03:16:15.132Z,100240.34
2023-10-08T03:19:20.584Z,100237.63
2023-10-08T03:22:22.339Z,100231.31
2023-10-08T03:25:25.761Z,100228.59
2023-10-08T03:28:35.739Z,100217.06
2023-10-08T03:32:03.480Z,100208.56
2023-10-08T03:35:06.197Z,100208.25
2023-10-08T03:38:22.754Z,100205.00
2023-10-08T03:41:31.509Z,100194.28
2023-10-08T03:44:33.297Z,100191.44
2023-10-08T03:47:35.154Z,100190.28
2023-10-08T03:50:44.462Z,100180.09
2023-10-08T03:53:59.835Z,100195.06
2023-10-08T03:57:02.223Z,100202.78
2023-10-08T04:00:08.962Z,100193.78
2023-10-08T04:03:12.826Z,100200.75
2023-10-08T04:06:17.492Z,100198.56
2023-10-08T04:09:21.957Z,100197.88
2023-10-08T04:12:23.696Z,100201.75
2023-10-08T04:15:25.442Z,100217.53
2023-10-08T04:18:27.978Z,100214.50
2023-10-08T04:21:30.018Z,100208.34
2023-10-08T04:24:35.733Z,100209.06
2023-10-08T04:27:37.683Z,100221.28
2023-10-08T04:30:42.106Z,100242.00
2023-10-08T04:33:45.651Z,100251.84
2023-10-08T04:36:47.519Z,100237.16
2023-10-08T04:39:55.763Z,100234.28
2023-10-08T04:43:03.124Z,100226.59
2023-10-08T04:46:23.048Z,100228.31
2023-10-08T04:49:24.814Z,100230.66
2023-10-08T04:52:28.915Z,100224.59
2023-10-08T04:55:30.762Z,100227.84
2023-10-08T04:58:41.555Z,100237.69
2023-10-08T05:01:49.038Z,100233.66
2023-10-08T05:05:10.340Z,100220.41
2023-10-08T05:08:26.153Z,100229.41
2023-10-08T05:11:46.558Z,100211.25
2023-10-08T05:18:14.188Z,100212.56
2023-10-08T05:21:26.934Z,100194.06
2023-10-08T05:24:39.460Z,100204.66
2023-10-08T05:27:49.058Z,100208.34
2023-10-08T05:31:12.901Z,100204.78
2023-10-08T05:34:25.058Z,100208.22
2023-10-08T05:37:33.277Z,100190.72
2023-10-08T05:40:54.469Z,100201.41
2023-10-08T05:44:14.808Z,100214.66
2023-10-08T05:47:35.320Z,100231.28
2023-10-08T05:50:40.762Z,100217.38
2023-10-08T05:53:45.591Z,100227.03
2023-10-08T05:57:07.922Z,100211.56
2023-10-08T06:00:09.804Z,100225.31
2023-10-08T06:03:11.697Z,100255.03
2023-10-08T06:06:16.386Z,100254.41
2023-10-08T06:14:01.083Z,100270.31
2023-10-08T06:17:24.875Z,100259.62
2023-10-08T06:20:40.564Z,100256.34
2023-10-08T06:23:43.778Z,100268.00
2023-10-08T06:26:49.860Z,100266.12
2023-10-08T06:29:51.930Z,100279.09
2023-10-08T06:32:58.394Z,100281.59
2023-10-08T06:36:06.800Z,100281.81
2023-10-08T06:39:13.393Z,100274.28
2023-10-08T06:42:16.966Z,100271.75
2023-10-08T06:45:19.628Z,100277.03
2023-10-08T06:48:24.699Z,100277.03
2023-10-08T06:51:27.255Z,100273.84
2023-10-08T06:54:32.760Z,100246.31
2023-10-08T06:57:39.390Z,100281.25
2023-10-08T07:00:48.403Z,100277.94
2023-10-08T07:04:04.431Z,100273.84
2023-10-08T07:07:10.694Z,100273.56
2023-10-08T07:10:13.206Z,100254.91
2023-10-08T07:13:18.621Z,100241.63
2023-10-08T07:16:22.224Z,100224.09
2023-10-08T07:19:33.861Z,100231.81
2023-10-08T07:22:35.737Z,100246.47
2023-10-08T07:25:40.548Z,100248.00
2023-10-08T07:28:42.599Z,100240.69
2023-10-08T07:31:53.382Z,100249.91
2023-10-08T07:34:58.983Z,100259.97
2023-10-08T07:38:00.801Z,100247.91
2023-10-08T07:41:02.590Z,100245.84
2023-10-08T07:44:06.246Z,100243.63
2023-10-08T07:47:16.499Z,100263.91
2023-10-08T07:50:18.555Z,100242.09
2023-10-08T07:53:20.422Z,100240.75
2023-10-08T07:56:22.314Z,100234.59
2023-10-08T07:59:25.817Z,100246.50
2023-10-08T08:02:28.431Z,100236.75
2023-10-08T08:05:30.322Z,100232.47
2023-10-08T08:08:32.123Z,100233.59
2023-10-08T08:11:38.027Z,100246.72
2023-10-08T08:14:42.737Z,100252.69
2023-10-08T08:17:45.987Z,100272.44
2023-10-08T08:20:49.343Z,100271.28
2023-10-08T08:23:51.486Z,100297.03
2023-10-08T08:27:03.311Z,100285.44
2023-10-08T08:30:11.950Z,100283.59
2023-10-08T08:33:15.417Z,100277.22
2023-10-08T08:36:18.446Z,100281.03
2023-10-08T08:39:37.684Z,100295.41
2023-10-08T08:42:39.974Z,100290.97
2023-10-08T08:45:41.805Z,100296.09
2023-10-08T08:48:47.845Z,100321.44
2023-10-08T08:51:54.573Z,100330.75
2023-10-08T08:54:56.460Z,100339.72
2023-10-08T08:57:58.328Z,100347.94
2023-10-08T09:01:01.449Z,100363.72
2023-10-08T09:04:06.413Z,100377.78
2023-10-08T09:07:09.171Z,100391.47
2023-10-08T09:10:13.539Z,100392.31
2023-10-08T09:13:16.535Z,100411.28
2023-10-08T09:16:18.985Z,100418.12
2023-10-08T09:19:23.500Z,100429.53
2023-10-08T09:22:26.923Z,100442.16
2023-10-08T09:25:30.801Z,100451.28
2023-10-08T09:28:35.790Z,100470.87
2023-10-08T09:31:39.073Z,100495.06
2023-10-08T09:34:41.903Z,100523.97
2023-10-08T09:37:45.709Z,100525.69
2023-10-08T09:40:47.758Z,100527.09
2023-10-08T09:43:49.868Z,100546.69
2023-10-08T09:47:08.613Z,100541.09
2023-10-08T09:50:14.064Z,100583.41
2023-10-08T09:53:21.038Z,100602.50
2023-10-08T09:56:24.207Z,100585.47
2023-10-08T09:59:29.237Z,100600.09
2023-10-08T10:02:32.674Z,100575.84
2023-10-08T10:05:39.141Z,100581.28
2023-10-08T10:08:43.630Z,100590.53
2023-10-08T10:11:53.239Z,100583.94
2023-10-08T10:14:57.349Z,100588.41
2023-10-08T10:18:29.979Z,100615.31
2023-10-08T10:21:34.150Z,100615.00
2023-10-08T10:24:39.230Z,100603.22
2023-10-08T10:27:40.992Z,100599.41
2023-10-08T10:30:43.287Z,100599.56
2023-10-08T10:33:47.413Z,100608.44
2023-10-08T10:36:56.890Z,100612.09
2023-10-08T10:40:02.237Z,100582.84
2023-10-08T10:43:07.898Z,100576.53
2023-10-08T10:46:28.672Z,100548.81
2023-10-08T10:49:33.821Z,100538.00
2023-10-08T10:52:54.379Z,100544.06
2023-10-08T10:56:10.496Z,100568.19
2023-10-08T10:59:28.277Z,100572.69
2023-10-08T11:02:32.889Z,100588.09
2023-10-08T11:05:38.607Z,100560.06
2023-10-08T11:08:50.201Z,100585.25
2023-10-08T11:11:55.998Z,100571.94
2023-10-08T11:14:58.596Z,100587.50
2023-10-08T11:18:01.131Z,100593.56
2023-10-08T11:21:16.350Z,100599.78
2023-10-08T11:24:34.420Z,100603.22
2023-10-08T11:27:39.788Z,100622.56
2023-10-08T11:30:43.584Z,100627.78
2023-10-08T11:34:08.636Z,100636.56
2023-10-08T11:37:21.231Z,100638.09
2023-10-08T11:40:30.351Z,100644.69
2023-10-08T11:43:36.830Z,100653.25
2023-10-08T11:46:41.610Z,100659.81
2023-10-08T11:49:49.113Z,100662.97
2023-10-08T11:52:51.090Z,100661.13
2023-10-08T11:55:57.704Z,100656.12
2023-10-08T11:59:01.416Z,100660.53
2023-10-08T12:02:06.324Z,100649.41
2023-10-08T12:05:08.968Z,100655.84
2023-10-08T12:08:13.138Z,100649.69
2023-10-08T12:11:15.360Z,100646.69
2023-10-08T12:14:17.179Z,100634.53
2023-10-08T12:17:19.898Z,100615.78
2023-10-08T12:20:24.939Z,100635.53
2023-10-08T12:23:27.076Z,100621.09
2023-10-08T12:26:29.308Z,100636.94
2023-10-08T12:29:34.203Z,100634.13
2023-10-08T12:32:38.646Z,100617.53
2023-10-08T12:35:45.606Z,100625.25
2023-10-08T12:38:49.119Z,100629.53
2023-10-08T12:41:54.650Z,100650.53
2023-10-08T12:44:59.031Z,100659.69
2023-10-08T12:48:01.015Z,100669.97
2023-10-08T12:51:06.281Z,100662.66
2023-10-08T12:54:09.089Z,100686.56
2023-10-08T12:57:11.156Z,100675.78
2023-10-08T13:00:13.773Z,100669.94
2023-10-08T13:03:24.382Z,100680.91
2023-10-08T13:06:30.525Z,100684.19
2023-10-08T13:09:32.761Z,100697.06
2023-10-08T13:12:35.377Z,100684.37
2023-10-08T13:15:37.437Z,100692.00
2023-10-08T13:18:39.500Z,100686.41
2023-10-08T13:21:41.586Z,100678.56
2023-10-08T13:24:43.589Z,100690.25
2023-10-08T13:27:45.529Z,100708.63
2023-10-08T13:30:48.285Z,100710.94
2023-10-08T13:33:53.161Z,100702.81
2023-10-08T13:36:55.235Z,100720.50
2023-10-08T13:39:57.062Z,100726.94
2023-10-08T13:42:59.610Z,100736.03
2023-10-08T13:46:13.765Z,100739.75
2023-10-08T13:49:17.773Z,100726.44
2023-10-08T13:52:21.466Z,100739.41
2023-10-08T13:55:26.397Z,100743.06
2023-10-08T13:58:32.435Z,100739.66
2023-10-08T14:01:35.837Z,100756.50
2023-10-08T14:04:41.513Z,100779.34
2023-10-08T14:07:45.713Z,100771.00
2023-10-08T14:10:49.585Z,100755.19
2023-10-08T14:13:53.024Z,100769.59
2023-10-08T14:16:55.585Z,100771.12
2023-10-08T14:20:08.208Z,100764.19
2023-10-08T14:23:10.078Z,100750.13
2023-10-08T14:26:12.041Z,100748.31
2023-10-08T14:29:16.606Z,100775.16
2023-10-08T14:32:21.012Z,100772.66
2023-10-08T14:35:41.677Z,100782.53
2023-10-08T14:39:02.374Z,100781.44
2023-10-08T14:42:22.847Z,100810.88
2023-10-08T14:45:28.811Z,100805.72
2023-10-08T14:48:31.335Z,100807.84
2023-10-08T14:51:33.148Z,100805.38
2023-10-08T14:54:35.195Z,100818.41
2023-10-08T14:57:37.163Z,100818.66
2023-10-08T15:00:40.434Z,100826.91
2023-10-08T15:03:42.905Z,100815.72
2023-10-08T15:06:44.954Z,100828.50
2023-10-08T15:09:46.781Z,100824.84
2023-10-08T15:12:50.708Z,100830.84
2023-10-08T15:15:55.773Z,100856.91
2023-10-08T15:18:58.007Z,100848.44
2023-10-08T15:22:00.156Z,100849.31
2023-10-08T15:25:04.824Z,100859.12
2023-10-08T15:28:07.046Z,100853.84
2023-10-08T15:31:10.065Z,100867.47
2023-10-08T15:34:28.622Z,100879.69
2023-10-08T15:37:36.729Z,100893.31
2023-10-08T15:40:38.523Z,100908.75
2023-10-08T15:43:40.925Z,100914.97
2023-10-08T15:46:46.671Z,100924.31
2023-10-08T15:49:48.726Z,100929.97
2023-10-08T15:52:51.114Z,100923.94
2023-10-08T15:55:53.694Z,100946.00
2023-10-08T15:58:55.811Z,100929.28
2023-10-08T16:02:00.356Z,100949.53
2023-10-08T16:05:04.103Z,100942.97
2023-10-08T16:08:06.280Z,100970.41
2023-10-08T16:11:08.076Z,100976.66
2023-10-08T16:14:10.148Z,100981.31
2023-10-08T16:17:16.636Z,100978.31
2023-10-08T16:20:19.183Z,100984.44
2023-10-08T16:23:23.618Z,100994.69
2023-10-08T16:26:26.313Z,101013.88
2023-10-08T16:29:28.176Z,101018.53
2023-10-08T16:32:30.040Z,101041.06
2023-10-08T16:35:32.280Z,101048.38
2023-10-08T16:38:34.184Z,101049.78
2023-10-08T16:41:36.242Z,101058.62
2023-10-08T16:44:38.038Z,101066.03
2023-10-08T16:47:40.214Z,101058.28
2023-10-08T16:50:43.609Z,101058.69
2023-10-08T16:53:47.355Z,101076.72
2023-10-08T16:56:49.447Z,101080.87
2023-10-08T16:59:51.626Z,101093.59
2023-10-08T17:02:53.942Z,101111.22
2023-10-08T17:05:56.464Z,101107.97
2023-10-08T17:08:58.706Z,101124.44
2023-10-08T17:12:03.337Z,101130.22
2023-10-08T17:15:11.329Z,101153.72
2023-10-08T17:18:14.112Z,101158.44
2023-10-08T17:21:18.375Z,101172.97
2023-10-08T17:24:23.456Z,101182.28
2023-10-08T17:27:25.474Z,101178.31
2023-10-08T17:30:28.231Z,101185.13
2023-10-08T17:33:30.562Z,101179.84
2023-10-08T17:36:37.431Z,101192.44
2023-10-08T17:39:41.678Z,101196.28
2023-10-08T17:42:43.928Z,101180.13
2023-10-08T17:45:47.229Z,101185.91
2023-10-08T17:48:51.557Z,101168.91
2023-10-08T17:51:53.629Z,101177.25
2023-10-08T17:54:57.263Z,101176.56
2023-10-08T17:58:04.139Z,101178.66
2023-10-08T18:01:14.772Z,101182.34
2023-10-08T18:04:17.230Z,101193.28
2023-10-08T18:07:20.265Z,101191.53
2023-10-08T18:10:24.735Z,101205.00
2023-10-08T18:13:31.509Z,101215.00
2023-10-08T18:16:33.765Z,101204.44
2023-10-08T18:19:40.340Z,101198.44
2023-10-08T18:22:42.437Z,101148.97
2023-10-08T18:25:47.325Z,101192.66
2023-10-08T18:28:50.758Z,101206.22
2023-10-08T18:31:52.886Z,101205.63
2023-10-08T18:34:55.104Z,101209.44
2023-10-08T18:38:01.276Z,101213.37
2023-10-08T18:41:08.691Z,101227.16
2023-10-08T18:44:11.614Z,101223.97
2023-10-08T18:47:17.641Z,101236.63
2023-10-08T18:50:23.411Z,101241.34
2023-10-08T18:53:29.613Z,101255.13
2023-10-08T18:56:31.825Z,101260.87
2023-10-08T18:59:34.004Z,101265.47
2023-10-08T19:02:43.205Z,101266.59
2023-10-08T19:05:45.640Z,101262.34
2023-10-08T19:08:48.589Z,101258.59
2023-10-08T19:11:56.093Z,101256.19
2023-10-08T19:15:00.499Z,101257.84
2023-10-08T19:18:05.943Z,101245.34
2023-10-08T19:21:09.999Z,101258.09
2023-10-08T19:24:12.789Z,101268.78
2023-10-08T19:27:16.153Z,101254.88
2023-10-08T19:30:22.927Z,101256.63
2023-10-08T19:33:26.793Z,101264.78
2023-10-08T19:36:31.189Z,101276.38
2023-10-08T19:39:34.599Z,101278.56
2023-10-08T19:42:40.616Z,101275.19
2023-10-08T19:45:42.871Z,101291.22
2023-10-08T19:48:47.734Z,101297.84
2023-10-08T19:51:51.157Z,101300.41
2023-10-08T19:54:54.949Z,101321.31
2023-10-08T19:57:57.038Z,101350.88
2023-10-08T20:00:59.428Z,101367.00
2023-10-08T20:04:01.735Z,101370.19
2023-10-08T20:07:03.734Z,101377.75
2023-10-08T20:10:07.393Z,101374.19
2023-10-08T20:13:10.625Z,101360.31
2023-10-08T20:16:12.681Z,101344.94
2023-10-08T20:19:14.589Z,101351.31
2023-10-08T20:22:17.332Z,101349.50
2023-10-08T20:25:22.331Z,101363.16
2023-10-08T20:28:26.904Z,101370.16
2023-10-08T20:31:30.112Z,101371.22
2023-10-08T20:34:32.500Z,101389.81
2023-10-08T20:37:34.422Z,101399.66
2023-10-08T20:40:37.192Z,101412.72
2023-10-08T20:43:39.006Z,101435.56
2023-10-08T20:46:41.173Z,101428.72
2023-10-08T20:49:44.373Z,101432.94
2023-10-08T20:52:47.457Z,101442.28
2023-10-08T20:55:49.370Z,101455.22
2023-10-08T20:58:51.383Z,101465.16
2023-10-08T21:01:55.142Z,101474.41
2023-10-08T21:04:58.001Z,101461.66
2023-10-08T21:08:00.426Z,101459.78
2023-10-08T21:11:04.396Z,101452.19
2023-10-08T21:14:07.479Z,101441.72
2023-10-08T21:17:09.263Z,101439.09
2023-10-08T21:20:11.836Z,101450.47
2023-10-08T21:23:13.606Z,101455.91
2023-10-08T21:26:19.733Z,101463.00
2023-10-08T21:29:21.988Z,101473.13
2023-10-08T21:32:23.762Z,101478.81
2023-10-08T21:35:26.130Z,101480.87
2023-10-08T21:38:29.775Z,101491.22
2023-10-08T21:41:32.360Z,101494.28
2023-10-08T21:44:34.155Z,101492.88
2023-10-08T21:47:36.445Z,101499.47
2023-10-08T21:50:38.438Z,101497.91
2023-10-08T21:53:40.238Z,101515.91
2023-10-08T21:56:41.996Z,101507.09
2023-10-08T21:59:44.184Z,101521.28
2023-10-08T22:02:46.854Z,101503.66
2023-10-08T22:05:48.923Z,101493.03
2023-10-08T22:08:50.721Z,101497.72
2023-10-08T22:11:52.530Z,101513.66
2023-10-08T22:14:56.570Z,101523.94
2023-10-08T22:18:03.062Z,101504.84
2023-10-08T22:21:08.573Z,101507.38
2023-10-08T22:24:13.765Z,101517.56
2023-10-08T22:27:29.170Z,101520.69
2023-10-08T22:30:36.747Z,101529.47
2023-10-08T22:33:41.269Z,101524.13
2023-10-08T22:37:02.387Z,101513.81
2023-10-08T22:40:15.518Z,101525.81
2023-10-08T22:43:17.662Z,101525.47
2023-10-08T22:46:25.951Z,101527.94
2023-10-08T22:49:28.090Z,101527.22
2023-10-08T22:52:32.712Z,101518.25
2023-10-08T22:55:38.569Z,101523.91
2023-10-08T22:58:40.893Z,101537.81
2023-10-08T23:01:48.002Z,101551.09
2023-10-08T23:04:51.060Z,101556.31
2023-10-08T23:07:53.197Z,101551.06
2023-10-08T23:10:55.387Z,101567.97
2023-10-08T23:14:04.156Z,101563.50
2023-10-08T23:17:08.509Z,101564.63
2023-10-08T23:20:12.739Z,101580.59
2023-10-08T23:23:16.767Z,101584.22
2023-10-08T23:26:18.587Z,101592.13
2023-10-08T23:29:20.967Z,101594.31
2023-10-08T23:32:23.012Z,101619.28
2023-10-08T23:35:26.896Z,101607.09
2023-10-08T23:38:33.522Z,101597.91
2023-10-08T23:41:48.810Z,101590.44
2023-10-08T23:44:51.215Z,101586.78
2023-10-08T23:47:53.256Z,101601.12
2023-10-08T23:50:55.428Z,101599.22
2023-10-08T23:54:02.633Z,101604.66
2023-10-08T23:57:07.951Z,101601.22
